Diekirch, Luxembourg
Current Conditions -  °F | °C
As of 12:50 PM on Thursday 30 Oct 2014 (Local Time) from ELLX Reporting Station
Haze Haze  
Wind Chill: 54°   Ceiling: 300
Heat Index: 54°   Visibility: 0.93mi
Dew Point: 54°   Wind: 2mph
Humidity: 100%   Direction: NA
Pressure: 30.24"   Gusts: NA
Location:  49.87°N, 6.16°E
Report Text: ELLX 301150Z VRB02KT 1500 R24/P1500N BR OVC003 12/12 Q1024 BECMG 3000
Loading
Personal Weather Stations






























Interactive Weather Map
Tropical Storm Tracking
New forecast layout! Learn more

10-Day Weather Forecast

Advertisements
Track Severe Weather on mobile